Bellocq, Argentina
Current Conditions -  °F | °C
As of 7:00 PM on Thursday 27 Nov 2014 (Local Time) from SAEZ Reporting Station
Clear Clear  
Wind Chill: 79°   Ceiling: Unl
Heat Index: 79°   Visibility: 6mi
Dew Point: 46°   Wind: 9mph
Humidity: 32%   Direction: 60°ENE
Pressure: 29.94"   Gusts: NA
Location:  35.8°S, 61.35°W
Report Text: SAEZ 272200Z 06008KT CAVOK 26/08 Q1014
Loading
Personal Weather Stations






























Interactive Weather Map New forecast layout! Learn more

10-Day Weather Forecast

Advertisements
Track Severe Weather on mobile